Terminal Aerodrome Forecast
Issued by NWS

Home | Current Version | Previous Version | Text Only | Print | Product List | Glossary On
Versions: 1 2 3 4 5 6 7 8 9 10 11 12 13 14 15 16 17 18
000
FTUS41 KAKQ 231759 CCA
TAFPHF
TAF COR
KPHF 231759Z 2318/2418 15012G20KT P6SM BKN040
     FM240400 17014G22KT 6SM SHRA OVC035
     FM240700 19013G20KT 4SM SHRA OVC025
     FM241200 20012G19KT P6SM BKN035
     FM241500 20014G22KT P6SM BKN040=

USA.gov is the U.S. government's official web portal to all federal, state and local government web resources and services.